createdAt,value
2023-04-25T00:00:27.021Z,11.80
2023-04-25T00:05:51.784Z,11.70
2023-04-25T00:11:14.666Z,11.70
2023-04-25T00:16:41.727Z,11.70
2023-04-25T00:22:09.874Z,11.70
2023-04-25T00:27:33.722Z,11.70
2023-04-25T00:32:57.839Z,11.60
2023-04-25T00:38:25.707Z,11.60
2023-04-25T00:43:56.010Z,11.60
2023-04-25T00:49:22.755Z,11.50
2023-04-25T00:54:48.963Z,11.50
2023-04-25T01:00:40.750Z,11.50
2023-04-25T01:06:10.806Z,11.40
2023-04-25T01:11:37.755Z,11.40
2023-04-25T01:17:04.851Z,11.40
2023-04-25T01:22:32.818Z,11.40
2023-04-25T01:27:57.657Z,11.30
2023-04-25T01:33:24.952Z,11.30
2023-04-25T01:38:54.786Z,11.30
2023-04-25T01:44:20.720Z,11.20
2023-04-25T01:50:06.717Z,11.10
2023-04-25T01:55:31.763Z,11.00
2023-04-25T02:01:00.942Z,11.00
2023-04-25T02:06:30.710Z,10.90
2023-04-25T02:11:58.782Z,10.90
2023-04-25T02:17:41.899Z,10.80
2023-04-25T02:23:05.917Z,10.70
2023-04-25T02:28:30.766Z,10.60
2023-04-25T02:33:57.823Z,10.50
2023-04-25T02:39:20.982Z,10.50
2023-04-25T02:44:46.930Z,10.40
2023-04-25T02:50:12.152Z,10.30
2023-04-25T02:55:34.762Z,10.20
2023-04-25T03:00:59.900Z,10.10
2023-04-25T03:06:22.758Z,10.00
2023-04-25T03:11:47.739Z,9.90
2023-04-25T03:17:15.821Z,9.80
2023-04-25T03:22:40.771Z,9.70
2023-04-25T03:28:07.043Z,9.60
2023-04-25T03:33:31.816Z,9.60
2023-04-25T03:39:00.869Z,9.50
2023-04-25T03:44:24.925Z,9.50
2023-04-25T03:49:50.804Z,9.40
2023-04-25T03:55:14.950Z,9.30
2023-04-25T04:00:37.816Z,9.20
2023-04-25T04:06:02.804Z,9.10
2023-04-25T04:11:29.835Z,9.00
2023-04-25T04:16:53.815Z,9.00
2023-04-25T04:22:22.890Z,8.90
2023-04-25T04:27:49.914Z,8.80
2023-04-25T04:33:40.106Z,8.80
2023-04-25T04:39:36.101Z,8.70
2023-04-25T04:45:29.850Z,8.60
2023-04-25T04:51:00.786Z,8.50
2023-04-25T04:56:36.936Z,8.50
2023-04-25T05:02:21.048Z,8.60
2023-04-25T05:08:05.094Z,8.60
2023-04-25T05:14:04.979Z,8.60
2023-04-25T05:19:39.900Z,8.60
2023-04-25T05:25:08.041Z,8.70
2023-04-25T05:31:02.159Z,8.70
2023-04-25T05:36:35.927Z,8.70
2023-04-25T05:41:59.860Z,8.70
2023-04-25T05:47:46.958Z,8.70
2023-04-25T05:53:23.855Z,8.70
2023-04-25T05:58:49.963Z,8.80
2023-04-25T06:04:14.956Z,8.80
2023-04-25T06:09:37.861Z,8.90
2023-04-25T06:15:01.366Z,9.00
2023-04-25T06:20:25.886Z,9.10
2023-04-25T06:25:51.094Z,9.20
2023-04-25T06:31:15.998Z,9.30
2023-04-25T06:36:41.915Z,9.40
2023-04-25T06:42:05.948Z,9.50
2023-04-25T06:47:49.946Z,9.60
2023-04-25T06:53:16.012Z,9.80
2023-04-25T06:58:45.899Z,10.00
2023-04-25T07:04:21.202Z,10.10
2023-04-25T07:09:47.943Z,10.30
2023-04-25T07:15:13.920Z,10.30
2023-04-25T07:20:42.171Z,10.40
2023-04-25T07:26:16.162Z,10.40
2023-04-25T07:31:59.125Z,10.50
2023-04-25T07:37:26.039Z,10.50
2023-04-25T07:43:00.019Z,10.60
2023-04-25T07:48:30.993Z,10.60
2023-04-25T07:53:55.459Z,10.70
2023-04-25T07:59:21.999Z,10.80
2023-04-25T08:04:46.148Z,10.80
2023-04-25T08:10:10.033Z,10.90
2023-04-25T08:15:36.058Z,11.00
2023-04-25T08:21:02.104Z,11.10
2023-04-25T08:26:29.188Z,11.20
2023-04-25T08:32:01.084Z,11.40
2023-04-25T08:37:28.973Z,11.50
2023-04-25T08:43:02.986Z,11.70
2023-04-25T08:48:31.003Z,11.80
2023-04-25T08:54:00.715Z,11.90
2023-04-25T08:59:34.303Z,11.90
2023-04-25T09:05:02.000Z,11.90
2023-04-25T09:10:38.208Z,11.90
2023-04-25T09:16:05.466Z,11.80
2023-04-25T09:21:54.048Z,11.60
2023-04-25T09:27:19.016Z,11.40
2023-04-25T09:32:51.020Z,11.30
2023-04-25T09:38:20.971Z,11.20
2023-04-25T09:43:52.120Z,11.20
2023-04-25T09:49:22.082Z,11.20
2023-04-25T09:55:04.730Z,11.20
2023-04-25T10:00:32.970Z,11.40
2023-04-25T10:06:12.149Z,11.60
2023-04-25T10:11:40.998Z,11.70
2023-04-25T10:17:05.065Z,11.90
2023-04-25T10:22:41.269Z,12.00
2023-04-25T10:28:10.096Z,12.20
2023-04-25T10:33:44.166Z,12.20
2023-04-25T10:39:15.308Z,12.40
2023-04-25T10:45:03.956Z,12.40
2023-04-25T10:50:33.108Z,12.50
2023-04-25T10:56:21.023Z,12.60
2023-04-25T11:15:54.778Z,13.00
2023-04-25T11:21:45.532Z,12.90
2023-04-25T11:27:16.697Z,12.90
2023-04-25T11:32:24.276Z,12.80
2023-04-25T11:37:38.134Z,12.70
2023-04-25T11:42:46.620Z,12.60
2023-04-25T11:47:54.014Z,12.40
2023-04-25T11:52:59.613Z,12.40
2023-04-25T11:58:03.807Z,12.40
2023-04-25T12:03:12.012Z,12.50
2023-04-25T12:08:25.105Z,12.80
2023-04-25T12:13:29.932Z,13.00
2023-04-25T12:18:42.735Z,13.10
2023-04-25T12:23:48.782Z,13.20
2023-04-25T12:29:00.520Z,13.30
2023-04-25T12:34:04.437Z,13.30
2023-04-25T12:39:19.768Z,13.40
2023-04-25T12:44:27.103Z,13.50
2023-04-25T12:49:32.520Z,13.50
2023-04-25T12:54:38.774Z,13.70
2023-04-25T12:59:45.385Z,13.90
2023-04-25T13:04:52.655Z,14.00
2023-04-25T13:16:30.679Z,14.20
2023-04-25T13:21:35.089Z,14.20
2023-04-25T13:26:45.322Z,14.30
2023-04-25T13:32:18.988Z,14.50
2023-04-25T13:37:27.494Z,14.60
2023-04-25T13:42:34.111Z,14.60
2023-04-25T13:47:38.773Z,14.50
2023-04-25T13:52:46.214Z,14.40
2023-04-25T13:57:51.822Z,14.30
2023-04-25T14:02:56.896Z,14.10
2023-04-25T14:08:02.383Z,14.00
2023-04-25T14:13:08.839Z,14.00
2023-04-25T14:18:17.324Z,13.90
2023-04-25T14:23:29.152Z,14.00
2023-04-25T14:28:41.102Z,14.00
2023-04-25T14:33:58.505Z,13.90
2023-04-25T14:39:06.334Z,13.90
2023-04-25T14:44:10.028Z,13.90
2023-04-25T14:49:17.422Z,13.90
2023-04-25T14:54:26.750Z,14.00
2023-04-25T14:59:40.037Z,14.20
2023-04-25T15:04:45.724Z,14.50
2023-04-25T15:09:54.406Z,14.70
2023-04-25T15:15:02.846Z,14.80
2023-04-25T15:20:10.884Z,14.90
2023-04-25T15:25:23.521Z,14.80
2023-04-25T15:30:26.939Z,14.70
2023-04-25T15:35:41.305Z,14.60
2023-04-25T15:40:49.319Z,14.30
2023-04-25T15:45:55.938Z,14.10
2023-04-25T15:51:08.500Z,14.00
2023-04-25T15:56:14.673Z,13.90
2023-04-25T16:01:31.857Z,13.80
2023-04-25T16:07:15.498Z,13.80
2023-04-25T16:19:19.034Z,14.10
2023-04-25T16:31:37.806Z,14.30
2023-04-25T16:43:48.672Z,14.00
2023-04-25T16:49:41.519Z,13.90
2023-04-25T16:55:22.370Z,13.90
2023-04-25T17:00:38.288Z,13.80
2023-04-25T17:05:51.118Z,13.70
2023-04-25T17:11:13.484Z,13.70
2023-04-25T17:16:40.799Z,13.60
2023-04-25T17:21:45.266Z,13.40
2023-04-25T17:27:11.125Z,13.40
2023-04-25T17:32:17.478Z,13.30
2023-04-25T17:37:21.515Z,13.20
2023-04-25T17:42:25.178Z,13.10
2023-04-25T17:47:39.722Z,13.00
2023-04-25T17:53:07.954Z,12.90
2023-04-25T17:58:13.167Z,12.80
2023-04-25T18:03:18.577Z,12.70
2023-04-25T18:08:23.197Z,12.60
2023-04-25T18:13:27.331Z,12.60
2023-04-25T18:18:39.145Z,12.60
2023-04-25T18:23:42.685Z,12.50
2023-04-25T18:28:46.908Z,12.50
2023-04-25T18:33:52.230Z,12.40
2023-04-25T18:39:05.566Z,12.40
2023-04-25T18:44:24.064Z,12.30
2023-04-25T18:49:28.939Z,12.20
2023-04-25T18:54:32.963Z,12.10
2023-04-25T18:59:36.913Z,12.00
2023-04-25T19:04:42.112Z,11.90
2023-04-25T19:09:46.091Z,11.80
2023-04-25T19:14:50.585Z,11.70
2023-04-25T19:19:55.379Z,11.70
2023-04-25T19:25:09.953Z,11.60
2023-04-25T19:30:15.170Z,11.50
2023-04-25T19:35:33.082Z,11.40
2023-04-25T19:40:44.941Z,11.40
2023-04-25T19:45:48.805Z,11.40
2023-04-25T19:50:53.542Z,11.30
2023-04-25T19:56:58.003Z,11.10
2023-04-25T20:02:30.269Z,11.00
2023-04-25T20:07:35.662Z,10.90
2023-04-25T20:12:49.500Z,10.70
2023-04-25T20:17:59.494Z,10.60
2023-04-25T20:23:40.592Z,10.40
2023-04-25T20:28:52.347Z,10.20
2023-04-25T20:40:03.498Z,10.10
2023-04-25T20:45:14.085Z,10.00
2023-04-25T20:51:50.847Z,10.00
2023-04-25T20:57:16.065Z,9.90
2023-04-25T21:02:20.276Z,9.80
2023-04-25T21:07:25.537Z,9.70
2023-04-25T21:12:36.303Z,9.60
2023-04-25T21:17:42.118Z,9.60
2023-04-25T21:22:51.004Z,9.50
2023-04-25T21:28:00.399Z,9.50
2023-04-25T21:33:05.002Z,9.40
2023-04-25T21:38:08.721Z,9.40
2023-04-25T21:43:14.731Z,9.20
2023-04-25T21:48:23.915Z,9.10
2023-04-25T21:53:33.445Z,9.00
2023-04-25T21:58:40.769Z,8.90
2023-04-25T22:03:47.433Z,8.80
2023-04-25T22:08:51.391Z,8.80
2023-04-25T22:13:58.133Z,8.70
2023-04-25T22:19:09.622Z,8.70
2023-04-25T22:24:12.875Z,8.60
2023-04-25T22:29:18.296Z,8.50
2023-04-25T22:34:24.677Z,8.50
2023-04-25T22:39:28.362Z,8.40
2023-04-25T22:44:35.639Z,8.40
2023-04-25T22:49:41.357Z,8.30
2023-04-25T22:54:44.755Z,8.20
2023-04-25T22:59:49.698Z,8.10
2023-04-25T23:04:55.045Z,8.10
2023-04-25T23:09:59.069Z,8.00
2023-04-25T23:15:05.594Z,8.00
2023-04-25T23:20:12.598Z,7.90
2023-04-25T23:25:16.528Z,7.90
2023-04-25T23:30:22.759Z,7.80
2023-04-25T23:35:27.724Z,7.70
2023-04-25T23:40:33.986Z,7.60
2023-04-25T23:45:38.799Z,7.60
2023-04-25T23:50:42.427Z,7.50
2023-04-25T23:55:45.731Z,7.40
